sensor_id;sensor_type;location;lat;lon;timestamp;pressure;altitude;pressure_sealevel;temperature;humidity
19259;BME280;9763;48.780;9.212;2023-12-29T00:02:11;98457.19;;;12.91;71.33
19259;BME280;9763;48.780;9.212;2023-12-29T00:05:36;98451.47;;;12.97;71.15
19259;BME280;9763;48.780;9.212;2023-12-29T00:09:00;98446.84;;;13.01;70.48
19259;BME280;9763;48.780;9.212;2023-12-29T00:12:24;98447.56;;;13.03;70.90
19259;BME280;9763;48.780;9.212;2023-12-29T00:15:49;98449.25;;;13.04;71.09
19259;BME280;9763;48.780;9.212;2023-12-29T00:19:15;98452.91;;;13.01;70.67
19259;BME280;9763;48.780;9.212;2023-12-29T00:22:40;98449.25;;;13.04;70.96
19259;BME280;9763;48.780;9.212;2023-12-29T00:26:04;98442.09;;;13.06;71.40
19259;BME280;9763;48.780;9.212;2023-12-29T00:29:27;98443.53;;;13.10;71.36
19259;BME280;9763;48.780;9.212;2023-12-29T00:32:56;98441.75;;;13.10;70.99
19259;BME280;9763;48.780;9.212;2023-12-29T00:36:20;98436.63;;;13.09;70.80
19259;BME280;9763;48.780;9.212;2023-12-29T00:39:45;98431.00;;;13.02;70.45
19259;BME280;9763;48.780;9.212;2023-12-29T00:43:09;98429.66;;;12.96;71.10
19259;BME280;9763;48.780;9.212;2023-12-29T00:46:33;98429.91;;;12.93;71.05
19259;BME280;9763;48.780;9.212;2023-12-29T00:49:56;98431.47;;;12.96;70.56
19259;BME280;9763;48.780;9.212;2023-12-29T00:53:20;98436.38;;;13.01;70.88
19259;BME280;9763;48.780;9.212;2023-12-29T00:56:49;98434.34;;;13.04;70.83
19259;BME280;9763;48.780;9.212;2023-12-29T01:00:14;98449.09;;;13.05;70.53
19259;BME280;9763;48.780;9.212;2023-12-29T01:03:38;98444.69;;;13.06;71.09
19259;BME280;9763;48.780;9.212;2023-12-29T01:07:02;98457.09;;;13.04;70.68
19259;BME280;9763;48.780;9.212;2023-12-29T01:10:27;98457.75;;;12.94;71.21
19259;BME280;9763;48.780;9.212;2023-12-29T01:13:52;98458.13;;;12.90;71.61
19259;BME280;9763;48.780;9.212;2023-12-29T01:17:16;98463.69;;;12.85;71.75
19259;BME280;9763;48.780;9.212;2023-12-29T01:20:40;98455.94;;;12.84;71.94
19259;BME280;9763;48.780;9.212;2023-12-29T01:24:04;98455.22;;;12.82;71.60
19259;BME280;9763;48.780;9.212;2023-12-29T01:27:29;98445.34;;;12.85;71.54
19259;BME280;9763;48.780;9.212;2023-12-29T01:30:54;98439.16;;;12.86;71.53
19259;BME280;9763;48.780;9.212;2023-12-29T01:34:19;98431.63;;;12.82;70.65
19259;BME280;9763;48.780;9.212;2023-12-29T01:37:43;98447.13;;;12.85;71.18
19259;BME280;9763;48.780;9.212;2023-12-29T01:41:07;98446.28;;;12.84;70.73
19259;BME280;9763;48.780;9.212;2023-12-29T01:44:31;98439.06;;;12.88;70.36
19259;BME280;9763;48.780;9.212;2023-12-29T01:47:56;98449.78;;;12.96;70.76
19259;BME280;9763;48.780;9.212;2023-12-29T01:51:24;98436.25;;;13.02;70.17
19259;BME280;9763;48.780;9.212;2023-12-29T01:54:51;98430.44;;;13.10;70.28
19259;BME280;9763;48.780;9.212;2023-12-29T01:58:17;98434.50;;;13.14;70.44
19259;BME280;9763;48.780;9.212;2023-12-29T02:01:41;98429.03;;;13.17;70.54
19259;BME280;9763;48.780;9.212;2023-12-29T02:05:07;98434.16;;;13.18;70.02
19259;BME280;9763;48.780;9.212;2023-12-29T02:08:34;98415.94;;;13.17;70.13
19259;BME280;9763;48.780;9.212;2023-12-29T02:11:58;98427.50;;;13.14;70.32
19259;BME280;9763;48.780;9.212;2023-12-29T02:15:22;98421.41;;;13.14;70.85
19259;BME280;9763;48.780;9.212;2023-12-29T02:18:47;98423.19;;;13.13;70.69
19259;BME280;9763;48.780;9.212;2023-12-29T02:22:15;98422.28;;;13.14;70.18
19259;BME280;9763;48.780;9.212;2023-12-29T02:25:40;98416.78;;;13.17;70.47
19259;BME280;9763;48.780;9.212;2023-12-29T02:29:08;98404.41;;;13.19;70.52
19259;BME280;9763;48.780;9.212;2023-12-29T02:32:34;98394.41;;;13.24;70.41
19259;BME280;9763;48.780;9.212;2023-12-29T02:36:00;98395.13;;;13.26;70.34
19259;BME280;9763;48.780;9.212;2023-12-29T02:39:25;98403.56;;;13.30;70.42
19259;BME280;9763;48.780;9.212;2023-12-29T02:42:50;98406.91;;;13.32;69.80
19259;BME280;9763;48.780;9.212;2023-12-29T02:46:14;98392.88;;;13.33;69.99
19259;BME280;9763;48.780;9.212;2023-12-29T02:49:38;98389.53;;;13.31;69.79
19259;BME280;9763;48.780;9.212;2023-12-29T02:53:02;98389.78;;;13.28;70.40
19259;BME280;9763;48.780;9.212;2023-12-29T02:56:26;98385.94;;;13.21;69.96
19259;BME280;9763;48.780;9.212;2023-12-29T02:59:51;98387.94;;;13.17;70.43
19259;BME280;9763;48.780;9.212;2023-12-29T03:03:15;98383.16;;;13.11;70.21
19259;BME280;9763;48.780;9.212;2023-12-29T03:06:40;98374.56;;;13.09;70.18
19259;BME280;9763;48.780;9.212;2023-12-29T03:10:05;98376.47;;;13.07;70.43
19259;BME280;9763;48.780;9.212;2023-12-29T03:13:28;98373.00;;;13.07;69.80
19259;BME280;9763;48.780;9.212;2023-12-29T03:16:54;98371.59;;;13.03;69.83
19259;BME280;9763;48.780;9.212;2023-12-29T03:20:18;98380.84;;;12.95;70.57
19259;BME280;9763;48.780;9.212;2023-12-29T03:23:42;98381.22;;;12.91;70.04
19259;BME280;9763;48.780;9.212;2023-12-29T03:27:06;98351.97;;;12.73;70.59
19259;BME280;9763;48.780;9.212;2023-12-29T03:30:31;98373.91;;;12.83;70.05
19259;BME280;9763;48.780;9.212;2023-12-29T03:33:56;98360.34;;;12.78;70.02
19259;BME280;9763;48.780;9.212;2023-12-29T03:37:20;98342.41;;;12.61;70.78
19259;BME280;9763;48.780;9.212;2023-12-29T03:40:44;98355.41;;;12.62;70.38
19259;BME280;9763;48.780;9.212;2023-12-29T03:44:07;98357.63;;;12.56;70.46
19259;BME280;9763;48.780;9.212;2023-12-29T03:47:31;98352.00;;;12.49;70.40
19259;BME280;9763;48.780;9.212;2023-12-29T03:50:56;98361.97;;;12.44;70.94
19259;BME280;9763;48.780;9.212;2023-12-29T03:54:19;98366.63;;;12.41;70.35
19259;BME280;9763;48.780;9.212;2023-12-29T03:57:44;98359.09;;;12.36;70.99
19259;BME280;9763;48.780;9.212;2023-12-29T04:01:10;98357.63;;;12.32;71.07
19259;BME280;9763;48.780;9.212;2023-12-29T04:04:37;98342.28;;;12.27;71.12
19259;BME280;9763;48.780;9.212;2023-12-29T04:08:04;98356.63;;;12.22;70.76
19259;BME280;9763;48.780;9.212;2023-12-29T04:11:28;98367.00;;;12.23;71.27
19259;BME280;9763;48.780;9.212;2023-12-29T04:14:52;98354.97;;;12.21;71.14
19259;BME280;9763;48.780;9.212;2023-12-29T04:18:16;98356.88;;;12.19;70.83
19259;BME280;9763;48.780;9.212;2023-12-29T04:21:40;98348.31;;;12.17;71.46
19259;BME280;9763;48.780;9.212;2023-12-29T04:25:06;98343.91;;;12.17;71.38
19259;BME280;9763;48.780;9.212;2023-12-29T04:28:31;98353.06;;;12.23;71.27
19259;BME280;9763;48.780;9.212;2023-12-29T04:31:55;98355.59;;;12.24;71.15
19259;BME280;9763;48.780;9.212;2023-12-29T04:35:19;98350.47;;;12.23;71.28
19259;BME280;9763;48.780;9.212;2023-12-29T04:38:43;98359.97;;;12.24;71.32
19259;BME280;9763;48.780;9.212;2023-12-29T04:42:08;98334.88;;;12.21;71.62
19259;BME280;9763;48.780;9.212;2023-12-29T04:45:31;98340.34;;;12.18;71.16
19259;BME280;9763;48.780;9.212;2023-12-29T04:48:55;98350.91;;;12.17;71.25
19259;BME280;9763;48.780;9.212;2023-12-29T04:52:19;98367.44;;;12.17;71.80
19259;BME280;9763;48.780;9.212;2023-12-29T04:55:43;98368.88;;;12.21;71.67
19259;BME280;9763;48.780;9.212;2023-12-29T04:59:10;98377.13;;;12.28;71.70
19259;BME280;9763;48.780;9.212;2023-12-29T05:02:33;98365.25;;;12.35;71.54
19259;BME280;9763;48.780;9.212;2023-12-29T05:05:57;98360.75;;;12.37;71.37
19259;BME280;9763;48.780;9.212;2023-12-29T05:09:21;98358.03;;;12.39;71.59
19259;BME280;9763;48.780;9.212;2023-12-29T05:12:45;98356.16;;;12.41;71.57
19259;BME280;9763;48.780;9.212;2023-12-29T05:16:10;98364.47;;;12.46;71.60
19259;BME280;9763;48.780;9.212;2023-12-29T05:19:33;98364.88;;;12.52;71.82
19259;BME280;9763;48.780;9.212;2023-12-29T05:22:57;98367.97;;;12.57;71.46
19259;BME280;9763;48.780;9.212;2023-12-29T05:26:21;98360.84;;;12.59;71.12
19259;BME280;9763;48.780;9.212;2023-12-29T05:29:45;98353.56;;;12.52;71.41
19259;BME280;9763;48.780;9.212;2023-12-29T05:33:10;98363.75;;;12.44;72.27
19259;BME280;9763;48.780;9.212;2023-12-29T05:36:35;98351.84;;;12.40;71.83
19259;BME280;9763;48.780;9.212;2023-12-29T05:39:59;98355.63;;;12.36;72.08
19259;BME280;9763;48.780;9.212;2023-12-29T05:43:23;98362.66;;;12.35;72.59
19259;BME280;9763;48.780;9.212;2023-12-29T05:46:47;98363.84;;;12.31;72.42
19259;BME280;9763;48.780;9.212;2023-12-29T05:50:13;98364.16;;;12.26;72.44
19259;BME280;9763;48.780;9.212;2023-12-29T05:53:37;98365.44;;;12.21;72.37
19259;BME280;9763;48.780;9.212;2023-12-29T05:57:03;98362.94;;;12.19;72.49
19259;BME280;9763;48.780;9.212;2023-12-29T06:00:27;98355.22;;;12.18;73.45
19259;BME280;9763;48.780;9.212;2023-12-29T06:03:51;98361.59;;;12.14;74.23
19259;BME280;9763;48.780;9.212;2023-12-29T06:07:16;98371.06;;;12.04;74.57
19259;BME280;9763;48.780;9.212;2023-12-29T06:10:39;98365.81;;;12.04;75.00
19259;BME280;9763;48.780;9.212;2023-12-29T06:14:03;98369.59;;;12.00;75.96
19259;BME280;9763;48.780;9.212;2023-12-29T06:17:27;98375.03;;;11.97;76.30
19259;BME280;9763;48.780;9.212;2023-12-29T06:20:51;98358.44;;;11.85;76.96
19259;BME280;9763;48.780;9.212;2023-12-29T06:24:16;98376.81;;;11.96;76.71
19259;BME280;9763;48.780;9.212;2023-12-29T06:27:40;98371.72;;;11.95;76.79
19259;BME280;9763;48.780;9.212;2023-12-29T06:31:05;98359.91;;;11.89;77.06
19259;BME280;9763;48.780;9.212;2023-12-29T06:34:29;98368.19;;;11.83;77.28
19259;BME280;9763;48.780;9.212;2023-12-29T06:37:53;98368.63;;;11.77;77.70
19259;BME280;9763;48.780;9.212;2023-12-29T06:41:19;98368.78;;;11.74;78.21
19259;BME280;9763;48.780;9.212;2023-12-29T06:44:43;98362.53;;;11.76;78.43
19259;BME280;9763;48.780;9.212;2023-12-29T06:48:07;98346.44;;;11.82;78.66
19259;BME280;9763;48.780;9.212;2023-12-29T06:51:32;98350.09;;;11.80;78.29
19259;BME280;9763;48.780;9.212;2023-12-29T06:54:56;98352.09;;;11.76;78.84
19259;BME280;9763;48.780;9.212;2023-12-29T06:58:21;98354.03;;;11.73;78.65
19259;BME280;9763;48.780;9.212;2023-12-29T07:01:45;98361.06;;;11.72;79.16
19259;BME280;9763;48.780;9.212;2023-12-29T07:05:09;98364.22;;;11.77;79.54
19259;BME280;9763;48.780;9.212;2023-12-29T07:08:33;98367.22;;;11.84;79.79
19259;BME280;9763;48.780;9.212;2023-12-29T07:11:57;98358.13;;;11.89;79.29
19259;BME280;9763;48.780;9.212;2023-12-29T07:15:22;98363.13;;;11.93;79.48
19259;BME280;9763;48.780;9.212;2023-12-29T07:18:46;98357.81;;;11.94;80.08
19259;BME280;9763;48.780;9.212;2023-12-29T07:22:10;98363.63;;;11.98;79.60
19259;BME280;9763;48.780;9.212;2023-12-29T07:25:34;98360.91;;;11.99;80.32
19259;BME280;9763;48.780;9.212;2023-12-29T07:28:58;98356.50;;;12.00;79.92
19259;BME280;9763;48.780;9.212;2023-12-29T07:32:24;98357.47;;;11.99;79.76
19259;BME280;9763;48.780;9.212;2023-12-29T07:35:48;98349.72;;;11.97;80.21
19259;BME280;9763;48.780;9.212;2023-12-29T07:39:12;98354.09;;;11.97;80.75
19259;BME280;9763;48.780;9.212;2023-12-29T07:42:36;98354.84;;;11.99;80.41
19259;BME280;9763;48.780;9.212;2023-12-29T07:46:00;98350.84;;;12.06;80.92
19259;BME280;9763;48.780;9.212;2023-12-29T07:49:25;98353.97;;;12.11;81.19
19259;BME280;9763;48.780;9.212;2023-12-29T07:52:50;98361.13;;;12.20;80.82
19259;BME280;9763;48.780;9.212;2023-12-29T07:56:15;98357.16;;;12.27;80.79
19259;BME280;9763;48.780;9.212;2023-12-29T07:59:38;98357.63;;;12.32;80.92
19259;BME280;9763;48.780;9.212;2023-12-29T08:03:03;98363.28;;;12.39;81.38
19259;BME280;9763;48.780;9.212;2023-12-29T08:06:30;98367.94;;;12.46;81.55
19259;BME280;9763;48.780;9.212;2023-12-29T08:09:53;98360.47;;;12.53;81.56
19259;BME280;9763;48.780;9.212;2023-12-29T08:13:17;98359.19;;;12.58;81.30
19259;BME280;9763;48.780;9.212;2023-12-29T08:16:41;98345.84;;;12.50;81.50
19259;BME280;9763;48.780;9.212;2023-12-29T08:20:06;98362.66;;;12.70;81.31
19259;BME280;9763;48.780;9.212;2023-12-29T08:23:32;98363.03;;;12.66;81.48
19259;BME280;9763;48.780;9.212;2023-12-29T08:26:56;98385.69;;;12.78;81.65
19259;BME280;9763;48.780;9.212;2023-12-29T08:30:21;98382.13;;;12.79;81.26
19259;BME280;9763;48.780;9.212;2023-12-29T08:33:46;98381.97;;;12.80;81.35
19259;BME280;9763;48.780;9.212;2023-12-29T08:37:10;98378.09;;;12.86;81.32
19259;BME280;9763;48.780;9.212;2023-12-29T08:40:36;98378.91;;;12.86;81.87
19259;BME280;9763;48.780;9.212;2023-12-29T08:44:01;98382.75;;;12.93;81.43
19259;BME280;9763;48.780;9.212;2023-12-29T08:47:26;98385.13;;;12.96;82.14
19259;BME280;9763;48.780;9.212;2023-12-29T08:50:50;98369.91;;;13.02;81.88
19259;BME280;9763;48.780;9.212;2023-12-29T08:54:17;98380.16;;;13.05;81.50
19259;BME280;9763;48.780;9.212;2023-12-29T08:57:43;98380.75;;;13.08;81.69
19259;BME280;9763;48.780;9.212;2023-12-29T09:01:06;98382.53;;;13.08;81.46
19259;BME280;9763;48.780;9.212;2023-12-29T09:04:32;98383.59;;;13.05;81.61
19259;BME280;9763;48.780;9.212;2023-12-29T09:07:56;98378.50;;;13.04;81.62
19259;BME280;9763;48.780;9.212;2023-12-29T09:11:20;98375.75;;;13.05;81.97
19259;BME280;9763;48.780;9.212;2023-12-29T09:14:46;98373.84;;;13.07;82.19
19259;BME280;9763;48.780;9.212;2023-12-29T09:18:10;98375.28;;;13.11;82.08
19259;BME280;9763;48.780;9.212;2023-12-29T09:21:34;98371.53;;;13.15;81.87
19259;BME280;9763;48.780;9.212;2023-12-29T09:24:58;98383.31;;;13.21;82.37
19259;BME280;9763;48.780;9.212;2023-12-29T09:28:25;98382.88;;;13.27;82.76
19259;BME280;9763;48.780;9.212;2023-12-29T09:31:50;98392.75;;;13.46;83.23
19259;BME280;9763;48.780;9.212;2023-12-29T09:35:14;98392.41;;;13.61;83.24
19259;BME280;9763;48.780;9.212;2023-12-29T09:38:42;98402.06;;;13.72;82.52
19259;BME280;9763;48.780;9.212;2023-12-29T09:42:13;98395.16;;;13.71;82.93
19259;BME280;9763;48.780;9.212;2023-12-29T09:45:43;98399.22;;;13.75;83.03
19259;BME280;9763;48.780;9.212;2023-12-29T09:49:12;98401.84;;;13.75;82.10
19259;BME280;9763;48.780;9.212;2023-12-29T09:52:37;98400.16;;;13.74;82.27
19259;BME280;9763;48.780;9.212;2023-12-29T09:56:07;98407.94;;;13.76;81.89
19259;BME280;9763;48.780;9.212;2023-12-29T09:59:34;98411.84;;;13.81;81.54
19259;BME280;9763;48.780;9.212;2023-12-29T10:03:00;98404.19;;;13.89;81.63
19259;BME280;9763;48.780;9.212;2023-12-29T10:06:26;98407.91;;;13.98;80.85
19259;BME280;9763;48.780;9.212;2023-12-29T10:09:54;98405.50;;;14.06;80.65
19259;BME280;9763;48.780;9.212;2023-12-29T10:13:20;98396.56;;;14.09;81.14
19259;BME280;9763;48.780;9.212;2023-12-29T10:16:53;98386.88;;;14.09;80.73
19259;BME280;9763;48.780;9.212;2023-12-29T10:20:33;98383.88;;;14.14;80.39
19259;BME280;9763;48.780;9.212;2023-12-29T10:24:10;98379.94;;;14.19;80.67
19259;BME280;9763;48.780;9.212;2023-12-29T10:27:36;98385.91;;;14.21;80.08
19259;BME280;9763;48.780;9.212;2023-12-29T10:31:00;98378.03;;;14.21;80.11
19259;BME280;9763;48.780;9.212;2023-12-29T10:34:26;98369.22;;;14.22;80.07
19259;BME280;9763;48.780;9.212;2023-12-29T10:37:53;98366.47;;;14.24;79.70
19259;BME280;9763;48.780;9.212;2023-12-29T10:41:19;98362.50;;;14.29;79.42
19259;BME280;9763;48.780;9.212;2023-12-29T10:44:43;98360.59;;;14.63;80.94
19259;BME280;9763;48.780;9.212;2023-12-29T10:48:08;98348.56;;;15.54;81.54
19259;BME280;9763;48.780;9.212;2023-12-29T10:51:32;98349.66;;;16.60;81.76
19259;BME280;9763;48.780;9.212;2023-12-29T10:55:05;98339.88;;;17.65;80.96
19259;BME280;9763;48.780;9.212;2023-12-29T10:58:33;98323.72;;;18.41;78.81
19259;BME280;9763;48.780;9.212;2023-12-29T11:02:01;98322.38;;;19.16;76.66
19259;BME280;9763;48.780;9.212;2023-12-29T11:05:29;98316.28;;;19.83;75.94
19259;BME280;9763;48.780;9.212;2023-12-29T11:08:56;98308.53;;;19.90;71.94
19259;BME280;9763;48.780;9.212;2023-12-29T11:12:20;98310.41;;;19.37;70.74
19259;BME280;9763;48.780;9.212;2023-12-29T11:15:46;98303.50;;;18.67;70.16
19259;BME280;9763;48.780;9.212;2023-12-29T11:19:11;98308.41;;;18.09;71.04
19259;BME280;9763;48.780;9.212;2023-12-29T11:22:37;98317.38;;;17.61;71.80
19259;BME280;9763;48.780;9.212;2023-12-29T11:26:01;98307.41;;;17.18;72.40
19259;BME280;9763;48.780;9.212;2023-12-29T11:29:27;98303.59;;;16.83;72.26
19259;BME280;9763;48.780;9.212;2023-12-29T11:33:01;98300.97;;;16.54;73.14
19259;BME280;9763;48.780;9.212;2023-12-29T11:36:33;98300.16;;;16.25;73.21
19259;BME280;9763;48.780;9.212;2023-12-29T11:40:09;98298.59;;;16.03;74.22
19259;BME280;9763;48.780;9.212;2023-12-29T11:43:36;98297.59;;;15.85;74.18
19259;BME280;9763;48.780;9.212;2023-12-29T11:47:01;98292.03;;;15.69;74.21
19259;BME280;9763;48.780;9.212;2023-12-29T11:50:31;98287.38;;;15.52;73.56
19259;BME280;9763;48.780;9.212;2023-12-29T11:53:56;98293.94;;;15.36;73.49
19259;BME280;9763;48.780;9.212;2023-12-29T11:57:31;98287.25;;;15.23;73.75
19259;BME280;9763;48.780;9.212;2023-12-29T12:00:57;98287.06;;;15.14;74.43
19259;BME280;9763;48.780;9.212;2023-12-29T12:04:39;98289.13;;;15.11;74.65
19259;BME280;9763;48.780;9.212;2023-12-29T12:08:08;98283.03;;;15.10;74.89
19259;BME280;9763;48.780;9.212;2023-12-29T12:11:45;98279.72;;;15.08;74.55
19259;BME280;9763;48.780;9.212;2023-12-29T12:15:33;98261.72;;;15.04;73.69
19259;BME280;9763;48.780;9.212;2023-12-29T12:19:05;98264.59;;;15.01;74.16
19259;BME280;9763;48.780;9.212;2023-12-29T12:22:31;98255.31;;;14.97;73.88
19259;BME280;9763;48.780;9.212;2023-12-29T12:26:02;98253.91;;;14.93;72.49
19259;BME280;9763;48.780;9.212;2023-12-29T12:29:28;98261.91;;;14.91;73.83
19259;BME280;9763;48.780;9.212;2023-12-29T12:32:59;98237.44;;;14.91;73.04
19259;BME280;9763;48.780;9.212;2023-12-29T12:36:28;98245.19;;;14.92;73.54
19259;BME280;9763;48.780;9.212;2023-12-29T12:39:51;98248.41;;;14.96;73.10
19259;BME280;9763;48.780;9.212;2023-12-29T12:43:17;98245.50;;;14.99;73.45
19259;BME280;9763;48.780;9.212;2023-12-29T12:46:49;98242.34;;;15.05;72.77
19259;BME280;9763;48.780;9.212;2023-12-29T12:50:15;98243.59;;;15.10;73.14
19259;BME280;9763;48.780;9.212;2023-12-29T12:53:40;98241.44;;;15.25;73.18
19259;BME280;9763;48.780;9.212;2023-12-29T12:57:05;98246.34;;;15.39;72.61
19259;BME280;9763;48.780;9.212;2023-12-29T13:00:31;98251.97;;;15.56;72.57
19259;BME280;9763;48.780;9.212;2023-12-29T13:03:57;98245.50;;;15.69;72.46
19259;BME280;9763;48.780;9.212;2023-12-29T13:07:22;98247.44;;;15.87;72.07
19259;BME280;9763;48.780;9.212;2023-12-29T13:10:46;98256.19;;;15.97;71.86
19259;BME280;9763;48.780;9.212;2023-12-29T13:14:20;98254.38;;;15.97;72.10
19259;BME280;9763;48.780;9.212;2023-12-29T13:17:51;98253.41;;;15.98;71.64
19259;BME280;9763;48.780;9.212;2023-12-29T13:21:17;98254.38;;;15.97;71.43
19259;BME280;9763;48.780;9.212;2023-12-29T13:24:46;98251.06;;;15.95;71.36
19259;BME280;9763;48.780;9.212;2023-12-29T13:28:11;98242.47;;;15.93;71.20
19259;BME280;9763;48.780;9.212;2023-12-29T13:31:38;98256.03;;;15.89;70.89
19259;BME280;9763;48.780;9.212;2023-12-29T13:35:16;98262.66;;;15.83;70.96
19259;BME280;9763;48.780;9.212;2023-12-29T13:38:49;98252.97;;;15.74;70.13
19259;BME280;9763;48.780;9.212;2023-12-29T13:42:17;98268.34;;;15.69;70.46
19259;BME280;9763;48.780;9.212;2023-12-29T13:45:46;98253.22;;;15.61;69.69
19259;BME280;9763;48.780;9.212;2023-12-29T13:49:11;98251.97;;;15.56;69.43
19259;BME280;9763;48.780;9.212;2023-12-29T13:52:40;98257.72;;;15.49;69.01
19259;BME280;9763;48.780;9.212;2023-12-29T13:56:09;98260.91;;;15.43;69.00
19259;BME280;9763;48.780;9.212;2023-12-29T13:59:34;98255.06;;;15.40;69.69
19259;BME280;9763;48.780;9.212;2023-12-29T14:03:10;98260.72;;;15.35;69.54
19259;BME280;9763;48.780;9.212;2023-12-29T14:06:40;98272.06;;;15.36;69.12
19259;BME280;9763;48.780;9.212;2023-12-29T14:10:07;98266.28;;;15.32;68.67
19259;BME280;9763;48.780;9.212;2023-12-29T14:13:35;98267.22;;;15.31;69.09
19259;BME280;9763;48.780;9.212;2023-12-29T14:16:58;98264.59;;;15.31;69.19
19259;BME280;9763;48.780;9.212;2023-12-29T14:20:33;98265.69;;;15.29;68.59
19259;BME280;9763;48.780;9.212;2023-12-29T14:24:08;98263.91;;;15.29;68.93
19259;BME280;9763;48.780;9.212;2023-12-29T14:27:34;98263.31;;;15.26;67.87
19259;BME280;9763;48.780;9.212;2023-12-29T14:31:02;98269.41;;;15.26;68.58
19259;BME280;9763;48.780;9.212;2023-12-29T14:34:26;98269.41;;;15.26;68.47
19259;BME280;9763;48.780;9.212;2023-12-29T14:37:51;98270.50;;;15.24;68.80
19259;BME280;9763;48.780;9.212;2023-12-29T14:41:15;98271.47;;;15.23;68.18
19259;BME280;9763;48.780;9.212;2023-12-29T14:44:40;98276.06;;;15.21;68.81
19259;BME280;9763;48.780;9.212;2023-12-29T14:48:04;98273.69;;;15.18;68.78
19259;BME280;9763;48.780;9.212;2023-12-29T14:51:29;98284.31;;;15.16;68.36
19259;BME280;9763;48.780;9.212;2023-12-29T14:54:53;98274.91;;;15.13;67.25
19259;BME280;9763;48.780;9.212;2023-12-29T14:58:16;98283.75;;;15.12;67.96
19259;BME280;9763;48.780;9.212;2023-12-29T15:01:42;98279.44;;;15.11;68.49
19259;BME280;9763;48.780;9.212;2023-12-29T15:05:06;98295.22;;;15.11;68.12
19259;BME280;9763;48.780;9.212;2023-12-29T15:08:30;98292.72;;;15.10;68.57
19259;BME280;9763;48.780;9.212;2023-12-29T15:11:57;98288.44;;;15.09;68.42
19259;BME280;9763;48.780;9.212;2023-12-29T15:15:21;98289.41;;;15.08;68.25
19259;BME280;9763;48.780;9.212;2023-12-29T15:18:46;98289.78;;;15.03;67.59
19259;BME280;9763;48.780;9.212;2023-12-29T15:22:10;98288.78;;;14.95;67.88
19259;BME280;9763;48.780;9.212;2023-12-29T15:25:35;98281.81;;;14.84;67.88
19259;BME280;9763;48.780;9.212;2023-12-29T15:29:00;98287.94;;;14.73;68.29
19259;BME280;9763;48.780;9.212;2023-12-29T15:32:25;98284.53;;;14.62;68.43
19259;BME280;9763;48.780;9.212;2023-12-29T15:35:50;98274.81;;;14.53;67.80
19259;BME280;9763;48.780;9.212;2023-12-29T15:39:14;98262.78;;;14.39;67.57
19259;BME280;9763;48.780;9.212;2023-12-29T15:42:38;98286.94;;;14.44;67.79
19259;BME280;9763;48.780;9.212;2023-12-29T15:46:02;98289.78;;;14.41;68.04
19259;BME280;9763;48.780;9.212;2023-12-29T15:49:26;98296.00;;;14.40;68.00
19259;BME280;9763;48.780;9.212;2023-12-29T15:52:51;98282.97;;;14.38;67.88
19259;BME280;9763;48.780;9.212;2023-12-29T15:56:18;98282.41;;;14.35;67.95
19259;BME280;9763;48.780;9.212;2023-12-29T15:59:42;98284.44;;;14.31;68.27
19259;BME280;9763;48.780;9.212;2023-12-29T16:03:07;98283.97;;;14.26;67.89
19259;BME280;9763;48.780;9.212;2023-12-29T16:06:32;98278.28;;;14.21;67.57
19259;BME280;9763;48.780;9.212;2023-12-29T16:09:57;98283.06;;;14.16;67.71
19259;BME280;9763;48.780;9.212;2023-12-29T16:13:21;98277.25;;;14.13;68.04
19259;BME280;9763;48.780;9.212;2023-12-29T16:16:45;98288.72;;;14.12;67.99
19259;BME280;9763;48.780;9.212;2023-12-29T16:20:11;98292.16;;;14.12;67.94
19259;BME280;9763;48.780;9.212;2023-12-29T16:23:35;98288.72;;;14.12;67.34
19259;BME280;9763;48.780;9.212;2023-12-29T16:27:01;98297.91;;;14.06;67.47
19259;BME280;9763;48.780;9.212;2023-12-29T16:30:25;98290.66;;;13.98;67.52
19259;BME280;9763;48.780;9.212;2023-12-29T16:33:49;98285.88;;;13.92;67.56
19259;BME280;9763;48.780;9.212;2023-12-29T16:37:13;98286.41;;;13.86;67.82
19259;BME280;9763;48.780;9.212;2023-12-29T16:40:37;98291.16;;;13.81;67.90
19259;BME280;9763;48.780;9.212;2023-12-29T16:44:02;98282.84;;;13.76;67.99
19259;BME280;9763;48.780;9.212;2023-12-29T16:47:27;98281.53;;;13.70;67.77
19259;BME280;9763;48.780;9.212;2023-12-29T16:50:51;98281.19;;;13.64;67.26
19259;BME280;9763;48.780;9.212;2023-12-29T16:54:15;98283.34;;;13.59;67.45
19259;BME280;9763;48.780;9.212;2023-12-29T16:57:39;98281.19;;;13.53;67.44
19259;BME280;9763;48.780;9.212;2023-12-29T17:01:05;98266.78;;;13.47;67.26
19259;BME280;9763;48.780;9.212;2023-12-29T17:04:29;98263.69;;;13.42;67.46
19259;BME280;9763;48.780;9.212;2023-12-29T17:07:54;98250.25;;;13.36;67.54
19259;BME280;9763;48.780;9.212;2023-12-29T17:11:18;98255.00;;;13.30;67.59
19259;BME280;9763;48.780;9.212;2023-12-29T17:14:42;98262.41;;;13.25;68.01
19259;BME280;9763;48.780;9.212;2023-12-29T17:18:08;98260.25;;;13.19;68.16
19259;BME280;9763;48.780;9.212;2023-12-29T17:21:32;98262.41;;;13.14;68.03
19259;BME280;9763;48.780;9.212;2023-12-29T17:24:57;98255.81;;;13.09;67.59
19259;BME280;9763;48.780;9.212;2023-12-29T17:28:21;98258.94;;;13.03;67.76
19259;BME280;9763;48.780;9.212;2023-12-29T17:31:45;98266.19;;;12.99;68.19
19259;BME280;9763;48.780;9.212;2023-12-29T17:35:11;98271.88;;;12.93;68.19
19259;BME280;9763;48.780;9.212;2023-12-29T17:38:35;98272.13;;;12.90;67.91
19259;BME280;9763;48.780;9.212;2023-12-29T17:41:59;98275.09;;;12.85;67.99
19259;BME280;9763;48.780;9.212;2023-12-29T17:45:24;98274.75;;;12.79;67.71
19259;BME280;9763;48.780;9.212;2023-12-29T17:48:48;98276.75;;;12.75;67.56
19259;BME280;9763;48.780;9.212;2023-12-29T17:52:14;98283.28;;;12.70;67.52
19259;BME280;9763;48.780;9.212;2023-12-29T17:55:38;98281.13;;;12.63;67.92
19259;BME280;9763;48.780;9.212;2023-12-29T17:59:01;98280.53;;;12.60;67.83
19259;BME280;9763;48.780;9.212;2023-12-29T18:02:25;98284.31;;;12.56;67.78
19259;BME280;9763;48.780;9.212;2023-12-29T18:05:54;98281.94;;;12.53;67.95
19259;BME280;9763;48.780;9.212;2023-12-29T18:09:21;98267.50;;;12.47;67.66
19259;BME280;9763;48.780;9.212;2023-12-29T18:12:45;98273.81;;;12.45;67.67
19259;BME280;9763;48.780;9.212;2023-12-29T18:16:09;98277.63;;;12.41;67.69
19259;BME280;9763;48.780;9.212;2023-12-29T18:19:33;98269.16;;;12.37;67.55
19259;BME280;9763;48.780;9.212;2023-12-29T18:22:57;98276.28;;;12.35;68.18